| time (UTC) | temp F | wind direction | speed knots | gust knots | rain 1hr in | rain 24hr in | rain mn in | humidity % | barometer mb |
| 20260510104338 | 50 | 106 | 1.7 | 1.7 | 0.00 | 0.00 | 0.00 | 99 | 1012.8 |
| 20260510103834 | 50 | 50 | 0.0 | 1.7 | 0.00 | 0.00 | 0.00 | 99 | 1013.0 |
| 20260510103331 | 50 | 100 | 1.7 | 1.7 | 0.00 | 0.00 | 0.00 | 99 | 1012.7 |
| 20260510102827 | 50 | 131 | 1.7 | 2.6 | 0.00 | 0.00 | 0.00 | 99 | 1012.7 |
| 20260510102323 | 50 | 98 | 0.9 | 1.7 | 0.00 | 0.00 | 0.00 | 99 | 1012.7 |
| 20260510101820 | 50 | 92 | 1.7 | 2.6 | 0.00 | 0.00 | 0.00 | 99 | 1012.6 |
| 20260510101318 | 50 | 84 | 1.7 | 2.6 | 0.00 | 0.00 | 0.00 | 99 | 1012.5 |
| 20260510100814 | 50 | 95 | 1.7 | 1.7 | 0.00 | 0.00 | 0.00 | 99 | 1012.3 |
| 20260510100312 | 50 | 110 | 0.9 | 1.7 | 0.00 | 0.00 | 0.00 | 99 | 1012.5 |
| 20260510095808 | 50 | 126 | 1.7 | 2.6 | 0.00 | 0.00 | 0.00 | 99 | 1012.4 |
| 20260510095305 | 50 | 35 | 0.0 | 1.7 | 0.00 | 0.00 | 0.00 | 99 | 1012.3 |
| 20260510094802 | 50 | 68 | 1.7 | 1.7 | 0.00 | 0.00 | 0.00 | 99 | 1012.6 |
| 20260510094258 | 50 | 88 | 0.9 | 1.7 | 0.00 | 0.00 | 0.00 | 99 | 1012.4 |
| 20260510093754 | 50 | 113 | 0.9 | 0.9 | 0.00 | 0.00 | 0.00 | 99 | 1012.4 |
| 20260510093251 | 50 | 87 | 0.9 | 1.7 | 0.00 | 0.00 | 0.00 | 99 | 1012.2 |
| 20260510092747 | 50 | 122 | 1.7 | 2.6 | 0.00 | 0.00 | 0.00 | 99 | 1012.5 |
| 20260510092243 | 50 | 131 | 1.7 | 1.7 | 0.00 | 0.00 | 0.00 | 99 | 1012.3 |
| 20260510091739 | 50 | 89 | 0.9 | 0.9 | 0.00 | 0.00 | 0.00 | 99 | 1012.5 |
| 20260510091236 | 50 | 108 | 0.0 | 0.9 | 0.00 | 0.00 | 0.00 | 99 | 1012.5 |
| 20260510090732 | 50 | 98 | 0.0 | 1.7 | 0.00 | 0.00 | 0.00 | 99 | 1012.6 |
| 20260510090230 | 50 | 144 | 0.0 | 1.7 | 0.00 | 0.00 | 0.00 | 99 | 1012.4 |
| 20260510085725 | 50 | 76 | 0.9 | 1.7 | 0.00 | 0.00 | 0.00 | 99 | 1012.4 |
| 20260510085220 | 50 | 74 | 0.9 | 1.7 | 0.00 | 0.00 | 0.00 | 99 | 1012.4 |
| 20260510084716 | 50 | 128 | 1.7 | 1.7 | 0.00 | 0.00 | 0.00 | 99 | 1012.3 |
| 20260510084213 | 50 | 50 | 1.7 | 2.6 | 0.00 | 0.00 | 0.00 | 99 | 1012.5 |
| 20260510083709 | 50 | 50 | 1.7 | 2.6 | 0.00 | 0.00 | 0.00 | 99 | 1012.6 |
| 20260510083207 | 50 | 41 | 1.7 | 2.6 | 0.00 | 0.00 | 0.00 | 99 | 1012.2 |
| 20260510082702 | 50 | 28 | 2.6 | 2.6 | 0.00 | 0.00 | 0.00 | 99 | 1012.5 |
| 20260510082159 | 50 | 68 | 1.7 | 2.6 | 0.00 | 0.00 | 0.00 | 99 | 1012.6 |
| 20260510081653 | 50 | 17 | 1.7 | 2.6 | 0.00 | 0.00 | 0.00 | 99 | 1012.6 |
| 20260510081149 | 50 | 27 | 2.6 | 3.5 | 0.00 | 0.00 | 0.00 | 99 | 1012.9 |
| 20260510080648 | 50 | 34 | 2.6 | 2.6 | 0.00 | 0.00 | 0.00 | 99 | 1012.7 |
| 20260510080146 | 49 | 40 | 2.6 | 2.6 | 0.00 | 0.00 | 0.00 | 99 | 1012.8 |
| 20260510075643 | 49 | 18 | 3.5 | 3.5 | 0.00 | 0.00 | 0.00 | 99 | 1012.7 |
| 20260510075140 | 49 | 30 | 2.6 | 4.3 | 0.00 | 0.00 | 0.00 | 99 | 1012.8 |
| 20260510074637 | 49 | 77 | 1.7 | 1.7 | 0.00 | 0.00 | 0.00 | 99 | 1012.5 |
| 20260510074132 | 49 | 356 | 5.2 | 5.2 | 0.00 | 0.00 | 0.00 | 99 | 1012.6 |
| 20260510073629 | 49 | 15 | 1.7 | 5.2 | 0.00 | 0.00 | 0.00 | 99 | 1012.7 |
| 20260510073126 | 49 | 6 | 3.5 | 3.5 | 0.00 | 0.00 | 0.00 | 99 | 1012.0 |
| 20260510072622 | 49 | 44 | 0.9 | 0.9 | 0.00 | 0.00 | 0.00 | 99 | 1011.8 |
| 20260510072118 | 49 | 44 | 0.0 | 0.9 | 0.00 | 0.00 | 0.00 | 99 | 1012.0 |
| 20260510071614 | 49 | 13 | 0.9 | 1.7 | 0.00 | 0.00 | 0.00 | 99 | 1011.8 |
| 20260510071112 | 49 | 116 | 0.9 | 1.7 | 0.00 | 0.00 | 0.00 | 99 | 1011.8 |
| 20260510070609 | 49 | 325 | 0.0 | 0.0 | 0.00 | 0.00 | 0.00 | 99 | 1011.8 |
| 20260510070107 | 49 | 36 | 0.9 | 0.9 | 0.00 | 0.00 | 0.00 | 99 | 1011.8 |
| 20260510065602 | 49 | 37 | 0.0 | 0.9 | 0.00 | 0.00 | 0.00 | 99 | 1012.1 |
| 20260510065058 | 49 | 27 | 1.7 | 1.7 | 0.00 | 0.00 | 0.00 | 99 | 1011.9 |
| 20260510064555 | 49 | 15 | 1.7 | 1.7 | 0.00 | 0.00 | 0.00 | 99 | 1012.1 |
| 20260510064052 | 49 | 31 | 0.0 | 0.0 | 0.00 | 0.00 | 0.00 | 99 | 1012.0 |
| 20260510063549 | 49 | 27 | 0.0 | 0.9 | 0.00 | 0.00 | 0.00 | 99 | 1012.0 |
| 20260510063046 | 49 | 56 | 0.9 | 1.7 | 0.00 | 0.00 | 0.00 | 99 | 1012.0 |
| 20260510062542 | 49 | 34 | 1.7 | 1.7 | 0.00 | 0.00 | 0.00 | 99 | 1012.1 |
| 20260510062037 | 49 | 36 | 1.7 | 1.7 | 0.00 | 0.00 | 0.00 | 99 | 1012.0 |
| 20260510061534 | 49 | 29 | 2.6 | 3.5 | 0.00 | 0.00 | 0.00 | 99 | 1012.2 |
| 20260510061030 | 50 | 3 | 2.6 | 3.5 | 0.00 | 0.00 | 0.00 | 99 | 1012.3 |
| 20260510060527 | 50 | 0 | 2.6 | 3.5 | 0.00 | 0.00 | 0.00 | 99 | 1012.2 |
| 20260510060023 | 49 | 18 | 1.7 | 2.6 | 0.00 | 0.00 | 0.00 | 99 | 1012.1 |
| 20260510055519 | 48 | 21 | 1.7 | 2.6 | 0.00 | 0.00 | 0.00 | 99 | 1012.0 |
| 20260510055018 | 48 | 50 | 0.9 | 1.7 | 0.00 | 0.00 | 0.00 | 98 | 1011.9 |
| 20260510054513 | 48 | 64 | 1.7 | 1.7 | 0.00 | 0.00 | 0.00 | 98 | 1011.7 |
| 20260510054003 | 47 | 33 | 1.7 | 2.6 | 0.00 | 0.00 | 0.00 | 98 | 1011.8 |
| 20260510053503 | 47 | 57 | 1.7 | 1.7 | 0.00 | 0.00 | 0.00 | 98 | 1011.8 |
| 20260510053000 | 47 | 107 | 0.9 | 1.7 | 0.00 | 0.00 | 0.00 | 98 | 1012.0 |
| 20260510052456 | 47 | 41 | 0.9 | 1.7 | 0.00 | 0.00 | 0.00 | 98 | 1011.8 |
| 20260510051952 | 47 | 14 | 0.9 | 1.7 | 0.00 | 0.00 | 0.00 | 98 | 1011.9 |
| 20260510051448 | 47 | 118 | 1.7 | 1.7 | 0.00 | 0.00 | 0.00 | 98 | 1012.0 |
| 20260510050944 | 46 | 47 | 0.0 | 1.7 | 0.00 | 0.00 | 0.00 | 98 | 1012.0 |
| 20260510050442 | 46 | 32 | 0.9 | 1.7 | 0.00 | 0.00 | 0.00 | 98 | 1012.1 |
| 20260510045939 | 46 | 45 | 0.9 | 1.7 | 0.00 | 0.00 | 0.00 | 98 | 1012.0 |
| 20260510045436 | 47 | 40 | 0.9 | 0.9 | 0.00 | 0.00 | 0.00 | 98 | 1012.0 |
| 20260510044933 | 47 | 40 | 0.9 | 1.7 | 0.00 | 0.00 | 0.00 | 98 | 1012.0 |
| 20260510044430 | 47 | 42 | 1.7 | 1.7 | 0.00 | 0.00 | 0.00 | 98 | 1012.0 |
| 20260510043926 | 47 | 45 | 0.9 | 1.7 | 0.00 | 0.00 | 0.00 | 98 | 1012.3 |
| 20260510043422 | 47 | 45 | 1.7 | 2.6 | 0.00 | 0.00 | 0.00 | 98 | 1012.1 |
| 20260510042921 | 47 | 52 | 0.9 | 1.7 | 0.00 | 0.00 | 0.00 | 98 | 1012.1 |
| 20260510042416 | 47 | 51 | 0.0 | 0.9 | 0.00 | 0.00 | 0.00 | 98 | 1012.0 |
| 20260510041912 | 47 | 41 | 0.9 | 1.7 | 0.00 | 0.00 | 0.00 | 98 | 1011.8 |
| 20260510041409 | 47 | 57 | 0.0 | 1.7 | 0.00 | 0.00 | 0.00 | 98 | 1012.0 |
| 20260510040907 | 47 | 30 | 0.9 | 1.7 | 0.00 | 0.00 | 0.00 | 98 | 1012.0 |
| 20260510040404 | 47 | 56 | 0.0 | 1.7 | 0.00 | 0.00 | 0.00 | 98 | 1012.1 |
| 20260510035859 | 47 | 42 | 0.9 | 1.7 | 0.00 | 0.34 | 0.34 | 98 | 1012.0 |
| 20260510035355 | 48 | 33 | 1.7 | 1.7 | 0.00 | 0.34 | 0.34 | 98 | 1012.1 |
| 20260510034850 | 48 | 43 | 0.9 | 1.7 | 0.00 | 0.34 | 0.34 | 98 | 1012.0 |
| 20260510034349 | 48 | 38 | 1.7 | 2.6 | 0.00 | 0.34 | 0.34 | 98 | 1012.0 |
| 20260510033845 | 48 | 28 | 1.7 | 2.6 | 0.00 | 0.34 | 0.34 | 98 | 1012.0 |
| 20260510033342 | 48 | 40 | 1.7 | 1.7 | 0.00 | 0.34 | 0.34 | 98 | 1012.0 |
| 20260510032838 | 48 | 64 | 0.9 | 1.7 | 0.00 | 0.34 | 0.34 | 97 | 1011.9 |
| 20260510032336 | 48 | 123 | 0.0 | 1.7 | 0.00 | 0.34 | 0.34 | 97 | 1012.0 |
| 20260510031831 | 48 | 120 | 0.0 | 0.0 | 0.00 | 0.34 | 0.34 | 97 | 1011.9 |
| 20260510031327 | 48 | 54 | 1.7 | 1.7 | 0.00 | 0.34 | 0.34 | 97 | 1011.7 |
| 20260510030826 | 48 | 39 | 1.7 | 1.7 | 0.00 | 0.34 | 0.34 | 97 | 1011.7 |
| 20260510030323 | 48 | 38 | 1.7 | 1.7 | 0.00 | 0.34 | 0.34 | 97 | 1011.7 |
| 20260510025820 | 48 | 58 | 0.9 | 1.7 | 0.00 | 0.34 | 0.34 | 97 | 1011.7 |
| 20260510025318 | 49 | 52 | 1.7 | 2.6 | 0.00 | 0.34 | 0.34 | 97 | 1011.8 |
| 20260510024814 | 49 | 27 | 1.7 | 1.7 | 0.00 | 0.34 | 0.34 | 97 | 1012.0 |
| 20260510024311 | 49 | 66 | 0.9 | 1.7 | 0.00 | 0.34 | 0.34 | 97 | 1011.6 |
| 20260510023808 | 49 | 40 | 1.7 | 1.7 | 0.00 | 0.34 | 0.34 | 97 | 1011.9 |
| 20260510023304 | 49 | 40 | 1.7 | 1.7 | 0.00 | 0.34 | 0.34 | 97 | 1011.7 |
| 20260510022801 | 49 | 56 | 0.0 | 1.7 | 0.00 | 0.34 | 0.34 | 97 | 1011.8 |
| 20260510022300 | 49 | 157 | 0.0 | 1.7 | 0.00 | 0.34 | 0.34 | 97 | 1011.8 |
| 20260510021800 | 50 | 72 | 0.9 | 1.7 | 0.00 | 0.34 | 0.34 | 97 | 1011.8 |
| 20260510021258 | 50 | 36 | 1.7 | 1.7 | 0.00 | 0.34 | 0.34 | 97 | 1011.6 |
| 20260510020754 | 50 | 145 | 1.7 | 1.7 | 0.00 | 0.34 | 0.34 | 97 | 1011.8 |
| 20260510020254 | 50 | 131 | 0.9 | 1.7 | 0.00 | 0.34 | 0.34 | 97 | 1011.8 |
| 20260510015750 | 50 | 41 | 1.7 | 1.7 | 0.00 | 0.34 | 0.34 | 97 | 1011.9 |
| 20260510015247 | 51 | 34 | 1.7 | 1.7 | 0.00 | 0.34 | 0.34 | 97 | 1011.7 |
| 20260510014741 | 51 | 111 | 0.0 | 1.7 | 0.00 | 0.34 | 0.34 | 97 | 1011.9 |
| 20260510014239 | 51 | 82 | 0.0 | 1.7 | 0.00 | 0.34 | 0.34 | 97 | 1011.7 |
| 20260510013735 | 51 | 77 | 1.7 | 1.7 | 0.00 | 0.34 | 0.34 | 97 | 1011.9 |
| 20260510013230 | 51 | 87 | 1.7 | 1.7 | 0.00 | 0.34 | 0.34 | 97 | 1011.6 |
| 20260510012725 | 52 | 95 | 1.7 | 1.7 | 0.00 | 0.34 | 0.34 | 97 | 1011.7 |
| 20260510012220 | 52 | 102 | 0.9 | 1.7 | 0.00 | 0.34 | 0.34 | 96 | 1011.6 |
| 20260510011720 | 52 | 128 | 1.7 | 1.7 | 0.00 | 0.34 | 0.34 | 96 | 1011.4 |
| 20260510011216 | 52 | 160 | 0.0 | 1.7 | 0.00 | 0.34 | 0.34 | 96 | 1011.5 |
| 20260510010713 | 52 | 47 | 0.9 | 1.7 | 0.00 | 0.34 | 0.34 | 96 | 1011.6 |
| 20260510010209 | 52 | 85 | 0.9 | 1.7 | 0.00 | 0.34 | 0.34 | 96 | 1011.8 |
| 20260510005706 | 52 | 70 | 0.9 | 1.7 | 0.00 | 0.34 | 0.34 | 96 | 1011.5 |
| 20260510005203 | 52 | 106 | 0.9 | 1.7 | 0.00 | 0.34 | 0.34 | 96 | 1011.6 |
| 20260510004702 | 53 | 58 | 0.9 | 0.9 | 0.00 | 0.34 | 0.34 | 96 | 1011.2 |
| 20260510004159 | 53 | 127 | 1.7 | 1.7 | 0.00 | 0.34 | 0.34 | 96 | 1011.4 |
| 20260510003656 | 53 | 100 | 0.9 | 1.7 | 0.00 | 0.34 | 0.34 | 96 | 1011.1 |
| 20260510003151 | 53 | 94 | 0.9 | 1.7 | 0.00 | 0.34 | 0.34 | 96 | 1011.3 |
| 20260510002651 | 53 | 107 | 1.7 | 2.6 | 0.00 | 0.34 | 0.34 | 96 | 1011.4 |
| 20260510002149 | 53 | 125 | 1.7 | 3.5 | 0.00 | 0.34 | 0.34 | 96 | 1011.1 |
| 20260510001646 | 53 | 110 | 1.7 | 1.7 | 0.00 | 0.34 | 0.34 | 96 | 1010.8 |
| 20260510001144 | 53 | 112 | 1.7 | 3.5 | 0.00 | 0.34 | 0.34 | 96 | 1010.9 |
| 20260510000644 | 53 | 121 | 1.7 | 2.6 | 0.00 | 0.34 | 0.34 | 96 | 1010.9 |
| 20260510000142 | 53 | 156 | 1.7 | 2.6 | 0.00 | 0.34 | 0.34 | 95 | 1011.1 |
| 20260509235638 | 53 | 115 | 1.7 | 3.5 | 0.00 | 0.34 | 0.34 | 95 | 1011.0 |
| 20260509235135 | 54 | 153 | 1.7 | 3.5 | 0.00 | 0.34 | 0.34 | 95 | 1011.0 |
| 20260509234631 | 54 | 135 | 1.7 | 1.7 | 0.00 | 0.34 | 0.34 | 94 | 1011.0 |
| 20260509234129 | 54 | 127 | 0.0 | 1.7 | 0.00 | 0.34 | 0.34 | 94 | 1011.1 |
| 20260509233626 | 54 | 93 | 1.7 | 3.5 | 0.00 | 0.34 | 0.34 | 94 | 1010.8 |
| 20260509233124 | 54 | 167 | 1.7 | 3.5 | 0.00 | 0.34 | 0.34 | 94 | 1010.9 |
| 20260509232620 | 54 | 105 | 3.5 | 4.3 | 0.00 | 0.34 | 0.34 | 94 | 1010.7 |
| 20260509232117 | 55 | 180 | 2.6 | 3.5 | 0.00 | 0.34 | 0.34 | 94 | 1010.9 |
| 20260509231613 | 55 | 133 | 2.6 | 3.5 | 0.00 | 0.34 | 0.34 | 94 | 1011.0 |
| 20260509231111 | 55 | 164 | 0.9 | 1.7 | 0.00 | 0.34 | 0.34 | 94 | 1010.8 |
| 20260509230608 | 55 | 171 | 1.7 | 2.6 | 0.00 | 0.34 | 0.34 | 94 | 1010.8 |
| 20260509230105 | 55 | 165 | 2.6 | 3.5 | 0.00 | 0.34 | 0.34 | 93 | 1010.6 |
| 20260509225600 | 55 | 142 | 2.6 | 2.6 | 0.00 | 0.34 | 0.34 | 93 | 1010.6 |
| 20260509225056 | 55 | 120 | 2.6 | 3.5 | 0.00 | 0.34 | 0.34 | 92 | 1010.7 |
| 20260509224551 | 55 | 152 | 3.5 | 3.5 | 0.00 | 0.34 | 0.34 | 91 | 1010.8 |
| 20260509224049 | 55 | 130 | 1.7 | 2.6 | 0.00 | 0.34 | 0.34 | 91 | 1010.9 |
| 20260509223546 | 55 | 129 | 1.7 | 2.6 | 0.00 | 0.34 | 0.34 | 90 | 1010.9 |
| 20260509223044 | 55 | 127 | 0.0 | 1.7 | 0.00 | 0.34 | 0.34 | 89 | 1010.9 |
| 20260509222539 | 55 | 140 | 0.9 | 1.7 | 0.00 | 0.34 | 0.34 | 90 | 1010.7 |
| 20260509222036 | 55 | 112 | 0.9 | 1.7 | 0.00 | 0.34 | 0.34 | 90 | 1010.7 |
| 20260509221531 | 56 | 125 | 1.7 | 1.7 | 0.00 | 0.34 | 0.34 | 92 | 1010.8 |
| 20260509221027 | 56 | 114 | 1.7 | 1.7 | 0.00 | 0.34 | 0.34 | 91 | 1011.1 |
| 20260509220523 | 55 | 60 | 0.0 | 1.7 | 0.00 | 0.34 | 0.34 | 91 | 1010.9 |
| 20260509220020 | 55 | 74 | 0.0 | 1.7 | 0.00 | 0.34 | 0.34 | 88 | 1010.8 |
| 20260509215515 | 55 | 51 | 0.0 | 0.0 | 0.00 | 0.34 | 0.34 | 88 | 1010.8 |
| 20260509215013 | 55 | 79 | 0.0 | 1.7 | 0.00 | 0.34 | 0.34 | 90 | 1010.9 |
| 20260509214510 | 55 | 35 | 1.7 | 2.6 | 0.00 | 0.34 | 0.34 | 90 | 1010.7 |
| 20260509214007 | 55 | 53 | 1.7 | 2.6 | 0.00 | 0.34 | 0.34 | 89 | 1010.9 |
| 20260509213502 | 55 | 37 | 2.6 | 2.6 | 0.00 | 0.34 | 0.34 | 90 | 1010.8 |
| 20260509213000 | 55 | 36 | 1.7 | 2.6 | 0.00 | 0.34 | 0.34 | 89 | 1011.0 |
| 20260509212457 | 55 | 34 | 2.6 | 3.5 | 0.00 | 0.34 | 0.34 | 91 | 1011.0 |
| 20260509211953 | 55 | 32 | 2.6 | 3.5 | 0.00 | 0.34 | 0.34 | 91 | 1011.2 |
| 20260509211449 | 55 | 9 | 1.7 | 2.6 | 0.00 | 0.34 | 0.34 | 90 | 1011.1 |
| 20260509210946 | 56 | 344 | 1.7 | 2.6 | 0.00 | 0.34 | 0.34 | 90 | 1011.2 |
| 20260509210443 | 56 | 17 | 1.7 | 3.5 | 0.00 | 0.34 | 0.34 | 90 | 1011.0 |
| 20260509205938 | 55 | 24 | 0.0 | 2.6 | 0.00 | 0.34 | 0.34 | 94 | 1011.2 |
| 20260509205433 | 54 | 359 | 1.7 | 3.5 | 0.02 | 0.34 | 0.34 | 95 | 1010.9 |
| 20260509204929 | 54 | 46 | 1.7 | 1.7 | 0.02 | 0.34 | 0.34 | 96 | 1011.1 |
| 20260509204425 | 54 | 88 | 1.7 | 1.7 | 0.00 | 0.33 | 0.33 | 96 | 1011.1 |
| 20260509203922 | 53 | 45 | 0.0 | 1.7 | 0.02 | 0.33 | 0.33 | 96 | 1011.0 |
| 20260509203418 | 53 | 42 | 0.9 | 0.9 | 0.02 | 0.33 | 0.33 | 96 | 1011.2 |
| 20260509202916 | 53 | 67 | 0.9 | 1.7 | 0.00 | 0.33 | 0.33 | 96 | 1010.9 |
| 20260509202411 | 53 | 44 | 0.9 | 1.7 | 0.02 | 0.33 | 0.33 | 95 | 1010.9 |
| 20260509201906 | 53 | 116 | 0.9 | 1.7 | 0.07 | 0.33 | 0.33 | 95 | 1011.2 |
| 20260509201402 | 53 | 69 | 0.9 | 1.7 | 0.24 | 0.32 | 0.32 | 95 | 1011.2 |
| 20260509200900 | 53 | 47 | 0.9 | 0.9 | 0.14 | 0.30 | 0.30 | 95 | 1011.4 |
| 20260509200359 | 53 | 9 | 0.9 | 1.7 | 0.02 | 0.28 | 0.28 | 95 | 1011.1 |
| 20260509195857 | 53 | 28 | 1.7 | 1.7 | 0.00 | 0.28 | 0.28 | 95 | 1011.2 |
| 20260509195356 | 52 | 58 | 1.7 | 1.7 | 0.00 | 0.28 | 0.28 | 94 | 1011.2 |
| 20260509194856 | 52 | 47 | 1.7 | 2.6 | 0.02 | 0.28 | 0.28 | 94 | 1011.2 |
| 20260509194353 | 52 | 53 | 1.7 | 2.6 | 0.07 | 0.28 | 0.28 | 94 | 1011.6 |
| 20260509193850 | 52 | 35 | 1.7 | 2.6 | 0.07 | 0.28 | 0.28 | 94 | 1011.7 |
| 20260509193349 | 52 | 21 | 1.7 | 4.3 | 0.05 | 0.27 | 0.27 | 94 | 1011.5 |
| 20260509192846 | 52 | 2 | 2.6 | 3.5 | 0.07 | 0.26 | 0.26 | 94 | 1011.7 |
| 20260509192342 | 52 | 30 | 3.5 | 3.5 | 0.05 | 0.26 | 0.26 | 94 | 1012.1 |
| 20260509191837 | 53 | 4 | 2.6 | 3.5 | 0.17 | 0.25 | 0.25 | 94 | 1012.0 |
| 20260509191333 | 53 | 60 | 0.0 | 1.7 | 0.17 | 0.24 | 0.24 | 93 | 1012.3 |
| 20260509190830 | 53 | 40 | 1.7 | 1.7 | 0.05 | 0.22 | 0.22 | 93 | 1012.6 |
| 20260509190327 | 53 | 8 | 1.7 | 3.5 | 0.05 | 0.22 | 0.22 | 93 | 1012.2 |
| 20260509185824 | 53 | 26 | 2.6 | 3.5 | 0.12 | 0.21 | 0.21 | 93 | 1012.5 |
| 20260509185320 | 53 | 10 | 2.6 | 3.5 | 0.12 | 0.20 | 0.20 | 93 | 1012.4 |
| 20260509184818 | 53 | 7 | 2.6 | 3.5 | 0.12 | 0.19 | 0.19 | 93 | 1012.5 |
| 20260509184315 | 53 | 16 | 3.5 | 3.5 | 0.07 | 0.18 | 0.18 | 93 | 1012.2 |
| 20260509183812 | 53 | 14 | 1.7 | 3.5 | 0.07 | 0.17 | 0.17 | 93 | 1012.4 |
| 20260509183307 | 53 | 24 | 2.6 | 2.6 | 0.09 | 0.17 | 0.17 | 93 | 1012.5 |
| 20260509182803 | 54 | 18 | 2.6 | 2.6 | 0.12 | 0.16 | 0.16 | 93 | 1012.5 |
| 20260509182300 | 54 | 44 | 0.0 | 1.7 | 0.12 | 0.15 | 0.15 | 94 | 1012.5 |
| 20260509181757 | 54 | 60 | 0.0 | 1.7 | 0.09 | 0.14 | 0.14 | 93 | 1012.4 |
| 20260509181254 | 54 | 37 | 0.9 | 1.7 | 0.07 | 0.13 | 0.13 | 93 | 1012.5 |
| 20260509180752 | 54 | 35 | 1.7 | 1.7 | 0.05 | 0.12 | 0.12 | 92 | 1012.4 |
| 20260509180248 | 54 | 36 | 0.9 | 2.6 | 0.05 | 0.12 | 0.12 | 92 | 1012.3 |
| 20260509175744 | 54 | 18 | 1.7 | 3.5 | 0.05 | 0.11 | 0.11 | 91 | 1012.2 |
| 20260509175241 | 54 | 12 | 2.6 | 3.5 | 0.05 | 0.11 | 0.11 | 91 | 1012.4 |
| 20260509174737 | 54 | 19 | 1.7 | 1.7 | 0.05 | 0.11 | 0.11 | 91 | 1012.3 |
| 20260509174232 | 54 | 41 | 1.7 | 2.6 | 0.05 | 0.10 | 0.10 | 90 | 1012.3 |
| 20260509173729 | 54 | 17 | 2.6 | 3.5 | 0.05 | 0.09 | 0.09 | 90 | 1011.9 |
| 20260509173224 | 55 | 24 | 2.6 | 2.6 | 0.09 | 0.09 | 0.09 | 89 | 1012.1 |
| 20260509172721 | 55 | 15 | 1.7 | 2.6 | 0.12 | 0.09 | 0.09 | 89 | 1012.4 |
| 20260509172217 | 55 | 62 | 0.0 | 1.7 | 0.09 | 0.07 | 0.07 | 88 | 1012.5 |
| 20260509171713 | 55 | 13 | 1.7 | 1.7 | 0.12 | 0.07 | 0.07 | 86 | 1012.6 |
| 20260509171209 | 55 | 43 | 0.9 | 2.6 | 0.07 | 0.06 | 0.06 | 85 | 1012.5 |
| 20260509170706 | 56 | 110 | 1.7 | 1.7 | 0.02 | 0.04 | 0.04 | 85 | 1012.6 |
| 20260509170202 | 56 | 145 | 1.7 | 3.5 | 0.02 | 0.04 | 0.04 | 84 | 1012.6 |
| 20260509165701 | 56 | 174 | 0.0 | 5.2 | 0.02 | 0.04 | 0.04 | 81 | 1012.9 |
| 20260509165156 | 57 | 203 | 2.6 | 5.2 | 0.02 | 0.04 | 0.04 | 80 | 1012.5 |
| 20260509164652 | 57 | 216 | 0.0 | 3.5 | 0.05 | 0.04 | 0.04 | 81 | 1012.6 |
| 20260509164148 | 57 | 207 | 0.9 | 1.7 | 0.05 | 0.03 | 0.03 | 80 | 1012.5 |
| 20260509163646 | 57 | 31 | 2.6 | 2.6 | 0.02 | 0.02 | 0.02 | 81 | 1012.7 |
| 20260509163142 | 57 | 132 | 1.7 | 3.5 | 0.00 | 0.02 | 0.02 | 79 | 1012.6 |
| 20260509162639 | 57 | 180 | 2.6 | 2.6 | 0.00 | 0.02 | 0.02 | 78 | 1012.7 |
| 20260509162134 | 57 | 161 | 1.7 | 3.5 | 0.02 | 0.02 | 0.02 | 79 | 1012.6 |
| 20260509161631 | 57 | 232 | 1.7 | 2.6 | 0.00 | 0.02 | 0.02 | 78 | 1012.6 |
| 20260509161126 | 57 | 38 | 1.7 | 1.7 | 0.00 | 0.02 | 0.02 | 80 | 1012.7 |
| 20260509160622 | 57 | 241 | 1.7 | 6.1 | 0.00 | 0.02 | 0.02 | 80 | 1012.6 |
| 20260509160118 | 57 | 139 | 0.0 | 0.9 | 0.00 | 0.02 | 0.02 | 82 | 1012.7 |
| 20260509155614 | 57 | 71 | 0.0 | 3.5 | 0.00 | 0.02 | 0.02 | 81 | 1012.6 |
| 20260509155110 | 57 | 304 | 0.0 | 1.7 | 0.00 | 0.02 | 0.02 | 82 | 1012.9 |
| 20260509154606 | 57 | 153 | 0.9 | 1.7 | 0.00 | 0.02 | 0.02 | 84 | 1012.7 |
| 20260509154104 | 56 | 106 | 0.0 | 2.6 | 0.00 | 0.02 | 0.02 | 85 | 1013.0 |
| 20260509153601 | 56 | 120 | 0.0 | 1.7 | 0.00 | 0.02 | 0.02 | 83 | 1012.9 |
| 20260509153058 | 56 | 189 | 2.6 | 2.6 | 0.00 | 0.02 | 0.02 | 84 | 1013.0 |
| 20260509152553 | 56 | 106 | 0.9 | 1.7 | 0.00 | 0.02 | 0.02 | 85 | 1012.6 |
| 20260509152051 | 56 | 77 | 1.7 | 2.6 | 0.00 | 0.02 | 0.02 | 86 | 1012.5 |
| 20260509151547 | 56 | 120 | 1.7 | 1.7 | 0.00 | 0.02 | 0.02 | 87 | 1012.7 |
| 20260509151045 | 55 | 153 | 1.7 | 2.6 | 0.00 | 0.02 | 0.02 | 86 | 1013.0 |
| 20260509150542 | 55 | 150 | 1.7 | 2.6 | 0.00 | 0.02 | 0.02 | 86 | 1013.0 |
| 20260509150041 | 55 | 147 | 1.7 | 1.7 | 0.00 | 0.02 | 0.02 | 86 | 1012.7 |
| 20260509145536 | 55 | 93 | 0.9 | 1.7 | 0.02 | 0.02 | 0.02 | 85 | 1012.8 |
| 20260509145031 | 55 | 93 | 1.7 | 1.7 | 0.02 | 0.02 | 0.02 | 84 | 1012.9 |
| 20260509144528 | 54 | 64 | 1.7 | 1.7 | 0.02 | 0.01 | 0.01 | 85 | 1012.6 |
| 20260509144026 | 54 | 85 | 0.9 | 1.7 | 0.02 | 0.01 | 0.01 | 83 | 1012.9 |
| 20260509143522 | 54 | 130 | 1.7 | 1.7 | 0.02 | 0.01 | 0.01 | 84 | 1012.9 |
| 20260509143020 | 54 | 135 | 1.7 | 2.6 | 0.05 | 0.01 | 0.01 | 82 | 1012.9 |
| 20260509142515 | 54 | 168 | 0.0 | 1.7 | 0.02 | 0.00 | 0.00 | 81 | 1012.9 |
| 20260509142011 | 54 | 110 | 1.7 | 2.6 | 0.00 | 0.00 | 0.00 | 82 | 1012.8 |
| 20260509141508 | 54 | 117 | 2.6 | 3.5 | 0.00 | 0.00 | 0.00 | 81 | 1012.8 |
| 20260509141005 | 54 | 153 | 1.7 | 2.6 | 0.00 | 0.00 | 0.00 | 81 | 1012.7 |
| 20260509140501 | 54 | 140 | 1.7 | 2.6 | 0.00 | 0.00 | 0.00 | 79 | 1012.6 |
| 20260509135959 | 54 | 110 | 1.7 | 2.6 | 0.00 | 0.00 | 0.00 | 79 | 1012.7 |
| 20260509135456 | 54 | 101 | 0.9 | 3.5 | 0.00 | 0.00 | 0.00 | 79 | 1012.7 |
| 20260509134954 | 54 | 134 | 1.7 | 3.5 | 0.00 | 0.00 | 0.00 | 78 | 1012.4 |
| 20260509134451 | 54 | 134 | 1.7 | 3.5 | 0.00 | 0.00 | 0.00 | 78 | 1012.6 |
| 20260509133949 | 54 | 201 | 0.9 | 5.2 | 0.00 | 0.00 | 0.00 | 77 | 1012.5 |
| 20260509133444 | 54 | 107 | 1.7 | 2.6 | 0.00 | 0.00 | 0.00 | 78 | 1012.4 |
| 20260509132943 | 54 | 134 | 2.6 | 2.6 | 0.00 | 0.00 | 0.00 | 78 | 1012.3 |
| 20260509132441 | 54 | 94 | 1.7 | 2.6 | 0.00 | 0.00 | 0.00 | 77 | 1012.5 |
| 20260509131937 | 54 | 112 | 1.7 | 2.6 | 0.00 | 0.00 | 0.00 | 78 | 1012.7 |
| 20260509131435 | 54 | 166 | 1.7 | 1.7 | 0.00 | 0.00 | 0.00 | 78 | 1012.6 |
| 20260509130932 | 53 | 118 | 1.7 | 1.7 | 0.00 | 0.00 | 0.00 | 78 | 1012.6 |
| 20260509130426 | 53 | 137 | 0.9 | 1.7 | 0.00 | 0.00 | 0.00 | 78 | 1012.5 |
| 20260509125924 | 53 | 175 | 1.7 | 2.6 | 0.00 | 0.00 | 0.00 | 77 | 1012.6 |
| 20260509125421 | 53 | 159 | 2.6 | 2.6 | 0.00 | 0.00 | 0.00 | 77 | 1012.9 |
| 20260509124917 | 53 | 143 | 1.7 | 2.6 | 0.00 | 0.00 | 0.00 | 78 | 1012.7 |
| 20260509124414 | 53 | 152 | 1.7 | 3.5 | 0.00 | 0.00 | 0.00 | 78 | 1012.8 |
| 20260509123911 | 53 | 158 | 2.6 | 3.5 | 0.00 | 0.00 | 0.00 | 77 | 1012.6 |
| 20260509123408 | 53 | 140 | 1.7 | 1.7 | 0.00 | 0.00 | 0.00 | 77 | 1012.7 |
| 20260509122904 | 53 | 154 | 3.5 | 3.5 | 0.00 | 0.00 | 0.00 | 77 | 1012.8 |
| 20260509122401 | 52 | 153 | 2.6 | 3.5 | 0.00 | 0.00 | 0.00 | 79 | 1012.8 |
| 20260509121858 | 52 | 166 | 1.7 | 2.6 | 0.00 | 0.00 | 0.00 | 77 | 1012.7 |
| 20260509121355 | 52 | 158 | 1.7 | 3.5 | 0.00 | 0.00 | 0.00 | 77 | 1012.7 |
| 20260509120853 | 52 | 144 | 1.7 | 2.6 | 0.00 | 0.00 | 0.00 | 77 | 1012.9 |
| 20260509120351 | 52 | 148 | 2.6 | 3.5 | 0.00 | 0.00 | 0.00 | 77 | 1012.9 |
| 20260509115848 | 52 | 170 | 2.6 | 2.6 | 0.00 | 0.00 | 0.00 | 78 | 1012.9 |
| 20260509115345 | 52 | 115 | 1.7 | 2.6 | 0.00 | 0.00 | 0.00 | 77 | 1012.8 |
| 20260509114843 | 52 | 148 | 3.5 | 3.5 | 0.00 | 0.00 | 0.00 | 77 | 1012.7 |
| 20260509114342 | 52 | 141 | 2.6 | 2.6 | 0.00 | 0.00 | 0.00 | 77 | 1012.6 |
| 20260509113841 | 52 | 112 | 0.9 | 1.7 | 0.00 | 0.00 | 0.00 | 76 | 1012.7 |
| 20260509113337 | 52 | 144 | 2.6 | 2.6 | 0.00 | 0.00 | 0.00 | 76 | 1012.6 |
| 20260509112834 | 52 | 91 | 1.7 | 2.6 | 0.00 | 0.00 | 0.00 | 77 | 1012.9 |
| 20260509112331 | 51 | 151 | 2.6 | 3.5 | 0.00 | 0.00 | 0.00 | 77 | 1012.8 |
| 20260509111828 | 51 | 162 | 2.6 | 3.5 | 0.00 | 0.00 | 0.00 | 79 | 1012.6 |
| 20260509111325 | 51 | 130 | 2.6 | 3.5 | 0.00 | 0.00 | 0.00 | 79 | 1012.3 |
| 20260509110823 | 51 | 147 | 2.6 | 3.5 | 0.00 | 0.00 | 0.00 | 78 | 1012.5 |
| 20260509110319 | 51 | 148 | 1.7 | 3.5 | 0.00 | 0.00 | 0.00 | 82 | 1012.6 |
| 20260509105817 | 50 | 120 | 2.6 | 2.6 | 0.00 | 0.00 | 0.00 | 81 | 1012.6 |
| 20260509105315 | 49 | 154 | 1.7 | 2.6 | 0.00 | 0.00 | 0.00 | 86 | 1012.5 |
| 20260509104811 | 50 | 154 | 1.7 | 1.7 | 0.00 | 0.00 | 0.00 | 87 | 1012.4 |